KGUS/GUS METAR and TAF weather

Enter ICAO airport designator
Station Type Date Time Source
KGUS METAR 2020/11/27 01:56 UTC NOAA

KGUS 270156Z 23006KT 10SM OVC020 06/06 A3008 RMK AO2A SLP194 T00640064 $


Station Type Date Time Source
KGUS Decoded METAR 2020/11/27 01:56 UTC NOAA

Grissom Air Force Base / Peru, IN, United States (KGUS) 40-39N 086-09W
Nov 26, 2020 - 08:56 PM EST / 2020.11.27 0156 UTC
Wind: from the SW (230 degrees) at 7 MPH (6 KT):0
Visibility: 10 mile(s):0
Sky conditions: overcast
Temperature: 43.5 F (6.4 C)
Dew Point: 43.5 F (6.4 C)
Relative Humidity: 100%
Pressure (altimeter): 30.08 in. Hg (1018 hPa)
ob: KGUS 270156Z 23006KT 10SM OVC020 06/06 A3008 RMK AO2A SLP194 T00640064
cycle: 2

Station Type Date Time Source
KGUS TAF 2020/11/27 00:49 UTC NOAA

TAF
AMD KGUS 270000Z 2700/2803 24009KT 9999 OVC020 QNH3000INS
TEMPO 2701/2706 BKN010 OVC020
BECMG 2705/2706 VRB06KT 9999 FEW010 SCT020 QNH3002INS
BECMG 2710/2711 VRB06KT 8000 BR BKN004 OVC010 QNH3007INS
BECMG 2802/2803 32006KT 9999 NSW BKN015 OVC030 QNH3013INS TX07/2700Z TN03/2720Z LAST NO
AMDS AFT 2704 NEXT 2713

Example: see airport list